sensor_id;sensor_type;location;lat;lon;timestamp;pressure;altitude;pressure_sealevel;temperature;humidity
78835;BME280;68187;42.682;23.352;2023-03-23T00:01:54;95128.41;;;6.24;80.66
78835;BME280;68187;42.682;23.352;2023-03-23T00:04:21;95140.56;;;6.30;80.97
78835;BME280;68187;42.682;23.352;2023-03-23T00:06:53;95130.47;;;6.22;81.14
78835;BME280;68187;42.682;23.352;2023-03-23T00:09:20;95139.91;;;6.23;80.92
78835;BME280;68187;42.682;23.352;2023-03-23T00:11:50;95136.66;;;6.16;80.87
78835;BME280;68187;42.682;23.352;2023-03-23T00:14:17;95139.28;;;6.16;81.19
78835;BME280;68187;42.682;23.352;2023-03-23T00:16:48;95136.09;;;6.14;81.21
78835;BME280;68187;42.682;23.352;2023-03-23T00:19:16;95138.72;;;6.14;81.19
78835;BME280;68187;42.682;23.352;2023-03-23T00:21:45;95127.72;;;6.01;81.28
78835;BME280;68187;42.682;23.352;2023-03-23T00:24:14;95140.94;;;6.06;81.26
78835;BME280;68187;42.682;23.352;2023-03-23T00:26:44;95140.53;;;5.97;81.78
78835;BME280;68187;42.682;23.352;2023-03-23T00:29:13;95144.72;;;5.98;82.19
78835;BME280;68187;42.682;23.352;2023-03-23T00:31:40;95144.97;;;5.97;82.21
78835;BME280;68187;42.682;23.352;2023-03-23T00:34:13;95131.66;;;5.87;82.07
78835;BME280;68187;42.682;23.352;2023-03-23T00:36:43;95137.91;;;5.97;81.56
78835;BME280;68187;42.682;23.352;2023-03-23T00:39:10;95142.00;;;5.93;81.01
78835;BME280;68187;42.682;23.352;2023-03-23T00:41:38;95148.69;;;6.01;80.97
78835;BME280;68187;42.682;23.352;2023-03-23T00:44:05;95151.16;;;6.07;81.00
78835;BME280;68187;42.682;23.352;2023-03-23T00:46:33;95163.97;;;6.04;80.95
78835;BME280;68187;42.682;23.352;2023-03-23T00:49:11;95169.22;;;6.04;80.95
78835;BME280;68187;42.682;23.352;2023-03-23T00:51:39;95132.94;;;5.84;81.26
78835;BME280;68187;42.682;23.352;2023-03-23T00:54:06;95164.03;;;6.09;81.43
78835;BME280;68187;42.682;23.352;2023-03-23T00:56:32;95165.72;;;6.15;81.36
78835;BME280;68187;42.682;23.352;2023-03-23T00:59:01;95161.75;;;6.12;82.04
78835;BME280;68187;42.682;23.352;2023-03-23T01:01:28;95164.78;;;6.21;82.25
78835;BME280;68187;42.682;23.352;2023-03-23T01:03:55;95179.00;;;6.25;84.30
78835;BME280;68187;42.682;23.352;2023-03-23T01:06:26;95169.88;;;6.27;84.71
78835;BME280;68187;42.682;23.352;2023-03-23T01:08:53;95163.53;;;6.23;84.63
78835;BME280;68187;42.682;23.352;2023-03-23T01:11:22;95131.00;;;6.08;84.42
78835;BME280;68187;42.682;23.352;2023-03-23T01:13:49;95137.19;;;6.02;84.47
78835;BME280;68187;42.682;23.352;2023-03-23T01:16:17;95170.72;;;6.16;84.65
78835;BME280;68187;42.682;23.352;2023-03-23T01:18:44;95153.78;;;6.07;85.06
78835;BME280;68187;42.682;23.352;2023-03-23T01:21:13;95136.75;;;5.93;85.73
78835;BME280;68187;42.682;23.352;2023-03-23T01:23:40;95155.22;;;5.98;86.24
78835;BME280;68187;42.682;23.352;2023-03-23T01:26:07;95160.13;;;5.95;86.61
78835;BME280;68187;42.682;23.352;2023-03-23T01:28:35;95147.63;;;5.85;87.01
78835;BME280;68187;42.682;23.352;2023-03-23T01:31:03;95157.50;;;5.95;86.90
78835;BME280;68187;42.682;23.352;2023-03-23T01:33:31;95146.78;;;5.96;86.67
78835;BME280;68187;42.682;23.352;2023-03-23T01:36:05;95140.28;;;5.99;87.07
78835;BME280;68187;42.682;23.352;2023-03-23T01:38:33;95107.53;;;5.85;86.75
78835;BME280;68187;42.682;23.352;2023-03-23T01:41:00;95141.59;;;6.13;86.47
78835;BME280;68187;42.682;23.352;2023-03-23T01:43:27;95138.72;;;6.14;86.93
78835;BME280;68187;42.682;23.352;2023-03-23T01:45:54;95139.66;;;6.08;86.63
78835;BME280;68187;42.682;23.352;2023-03-23T01:48:23;95130.53;;;6.11;86.52
78835;BME280;68187;42.682;23.352;2023-03-23T01:50:56;95130.75;;;6.09;86.71
78835;BME280;68187;42.682;23.352;2023-03-23T01:53:27;95128.31;;;6.19;86.42
78835;BME280;68187;42.682;23.352;2023-03-23T01:55:56;95136.34;;;6.29;85.87
78835;BME280;68187;42.682;23.352;2023-03-23T01:58:26;95137.22;;;6.35;85.71
78835;BME280;68187;42.682;23.352;2023-03-23T02:00:54;95131.56;;;6.43;85.26
78835;BME280;68187;42.682;23.352;2023-03-23T02:03:24;95130.16;;;6.52;84.99
78835;BME280;68187;42.682;23.352;2023-03-23T02:05:51;95137.63;;;6.60;84.75
78835;BME280;68187;42.682;23.352;2023-03-23T02:08:20;95134.28;;;6.65;84.52
78835;BME280;68187;42.682;23.352;2023-03-23T02:10:47;95137.78;;;6.70;84.22
78835;BME280;68187;42.682;23.352;2023-03-23T02:13:14;95132.03;;;6.73;83.57
78835;BME280;68187;42.682;23.352;2023-03-23T02:15:48;95129.66;;;6.72;84.13
78835;BME280;68187;42.682;23.352;2023-03-23T02:18:25;95129.66;;;6.72;83.93
78835;BME280;68187;42.682;23.352;2023-03-23T02:21:25;95136.03;;;6.76;83.90
78835;BME280;68187;42.682;23.352;2023-03-23T02:24:39;95131.13;;;6.63;84.32
78835;BME280;68187;42.682;23.352;2023-03-23T02:27:15;95127.78;;;6.51;84.79
78835;BME280;68187;42.682;23.352;2023-03-23T02:30:00;95124.75;;;6.42;84.36
78835;BME280;68187;42.682;23.352;2023-03-23T02:35:40;95138.88;;;6.41;83.95
78835;BME280;68187;42.682;23.352;2023-03-23T02:38:11;95134.13;;;6.38;83.92
78835;BME280;68187;42.682;23.352;2023-03-23T02:40:42;95116.78;;;6.20;83.68
78835;BME280;68187;42.682;23.352;2023-03-23T02:43:14;95130.63;;;6.32;83.76
78835;BME280;68187;42.682;23.352;2023-03-23T02:45:43;95149.84;;;6.21;84.25
78835;BME280;68187;42.682;23.352;2023-03-23T02:48:12;95143.97;;;6.14;83.86
78835;BME280;68187;42.682;23.352;2023-03-23T02:50:43;95155.00;;;6.16;83.74
78835;BME280;68187;42.682;23.352;2023-03-23T02:53:13;95162.22;;;6.09;83.91
78835;BME280;68187;42.682;23.352;2023-03-23T02:55:43;95167.47;;;6.09;83.45
78835;BME280;68187;42.682;23.352;2023-03-23T02:58:11;95165.59;;;5.93;83.26
78835;BME280;68187;42.682;23.352;2023-03-23T03:00:39;95166.19;;;5.84;83.69
78835;BME280;68187;42.682;23.352;2023-03-23T03:03:10;95131.72;;;5.63;83.51
78835;BME280;68187;42.682;23.352;2023-03-23T03:05:44;95171.09;;;5.80;83.37
78835;BME280;68187;42.682;23.352;2023-03-23T03:08:18;95171.47;;;5.72;83.47
78835;BME280;68187;42.682;23.352;2023-03-23T03:10:52;95146.72;;;5.51;83.67
78835;BME280;68187;42.682;23.352;2023-03-23T03:13:32;95186.16;;;5.73;83.21
78835;BME280;68187;42.682;23.352;2023-03-23T03:16:07;95193.81;;;5.74;83.17
78835;BME280;68187;42.682;23.352;2023-03-23T03:18:42;95179.22;;;5.67;82.66
78835;BME280;68187;42.682;23.352;2023-03-23T03:21:14;95185.47;;;5.66;82.88
78835;BME280;68187;42.682;23.352;2023-03-23T03:23:46;95194.16;;;5.66;82.58
78835;BME280;68187;42.682;23.352;2023-03-23T03:26:16;95191.88;;;5.70;82.41
78835;BME280;68187;42.682;23.352;2023-03-23T03:28:47;95188.09;;;5.66;82.66
78835;BME280;68187;42.682;23.352;2023-03-23T03:31:16;95185.97;;;5.63;82.90
78835;BME280;68187;42.682;23.352;2023-03-23T03:33:44;95172.19;;;5.56;82.69
78835;BME280;68187;42.682;23.352;2023-03-23T03:36:17;95198.59;;;5.66;82.94
78835;BME280;68187;42.682;23.352;2023-03-23T03:38:47;95181.50;;;5.63;83.24
78835;BME280;68187;42.682;23.352;2023-03-23T03:41:14;95191.53;;;5.66;82.97
78835;BME280;68187;42.682;23.352;2023-03-23T03:43:41;95185.88;;;5.58;83.30
78835;BME280;68187;42.682;23.352;2023-03-23T03:46:08;95176.25;;;5.63;83.24
78835;BME280;68187;42.682;23.352;2023-03-23T03:48:34;95188.78;;;5.73;83.43
78835;BME280;68187;42.682;23.352;2023-03-23T03:51:01;95184.00;;;5.70;83.79
78835;BME280;68187;42.682;23.352;2023-03-23T03:53:29;95190.94;;;5.76;83.46
78835;BME280;68187;42.682;23.352;2023-03-23T03:55:56;95176.72;;;5.72;83.05
78835;BME280;68187;42.682;23.352;2023-03-23T03:58:26;95181.47;;;5.75;83.19
78835;BME280;68187;42.682;23.352;2023-03-23T04:00:58;95184.56;;;5.72;83.38
78835;BME280;68187;42.682;23.352;2023-03-23T04:03:24;95178.19;;;5.68;83.03
78835;BME280;68187;42.682;23.352;2023-03-23T04:05:52;95181.97;;;5.72;83.05
78835;BME280;68187;42.682;23.352;2023-03-23T04:08:20;95181.03;;;5.66;83.03
78835;BME280;68187;42.682;23.352;2023-03-23T04:10:49;95181.16;;;5.71;82.52
78835;BME280;68187;42.682;23.352;2023-03-23T04:13:16;95180.59;;;5.69;82.53
78835;BME280;68187;42.682;23.352;2023-03-23T04:15:43;95177.97;;;5.69;82.52
78835;BME280;68187;42.682;23.352;2023-03-23T04:18:11;95151.03;;;5.46;82.57
78835;BME280;68187;42.682;23.352;2023-03-23T04:20:41;95183.81;;;5.60;83.03
78835;BME280;68187;42.682;23.352;2023-03-23T04:23:08;95184.13;;;5.63;82.98
78835;BME280;68187;42.682;23.352;2023-03-23T04:25:35;95184.91;;;5.64;82.82
78835;BME280;68187;42.682;23.352;2023-03-23T04:28:03;95171.16;;;5.57;82.92
78835;BME280;68187;42.682;23.352;2023-03-23T04:30:30;95180.25;;;5.66;82.94
78835;BME280;68187;42.682;23.352;2023-03-23T04:32:57;95182.09;;;5.65;82.63
78835;BME280;68187;42.682;23.352;2023-03-23T04:35:26;95189.16;;;5.65;82.50
78835;BME280;68187;42.682;23.352;2023-03-23T04:37:55;95165.03;;;5.51;82.64
78835;BME280;68187;42.682;23.352;2023-03-23T04:40:24;95200.50;;;5.70;82.44
78835;BME280;68187;42.682;23.352;2023-03-23T04:42:51;95170.84;;;5.53;82.83
78835;BME280;68187;42.682;23.352;2023-03-23T04:45:23;95192.56;;;5.65;83.28
78835;BME280;68187;42.682;23.352;2023-03-23T04:47:52;95196.53;;;5.68;83.20
78835;BME280;68187;42.682;23.352;2023-03-23T04:50:24;95194.94;;;5.67;83.36
78835;BME280;68187;42.682;23.352;2023-03-23T04:52:52;95196.63;;;5.73;83.43
78835;BME280;68187;42.682;23.352;2023-03-23T04:55:22;95194.25;;;5.71;83.43
78835;BME280;68187;42.682;23.352;2023-03-23T04:57:48;95204.25;;;5.86;83.27
78835;BME280;68187;42.682;23.352;2023-03-23T05:00:16;95205.97;;;5.92;83.08
78835;BME280;68187;42.682;23.352;2023-03-23T05:02:45;95182.94;;;5.83;82.66
78835;BME280;68187;42.682;23.352;2023-03-23T05:05:17;95199.44;;;5.95;82.74
78835;BME280;68187;42.682;23.352;2023-03-23T05:07:44;95204.66;;;6.06;82.64
78835;BME280;68187;42.682;23.352;2023-03-23T05:10:12;95213.63;;;6.10;83.02
78835;BME280;68187;42.682;23.352;2023-03-23T05:12:40;95209.75;;;6.13;82.41
78835;BME280;68187;42.682;23.352;2023-03-23T05:15:09;95210.53;;;6.13;82.67
78835;BME280;68187;42.682;23.352;2023-03-23T05:17:36;95185.53;;;5.94;82.35
78835;BME280;68187;42.682;23.352;2023-03-23T05:20:06;95215.41;;;6.21;82.08
78835;BME280;68187;42.682;23.352;2023-03-23T05:22:35;95219.69;;;6.27;82.26
78835;BME280;68187;42.682;23.352;2023-03-23T05:25:02;95232.34;;;6.30;82.25
78835;BME280;68187;42.682;23.352;2023-03-23T05:27:29;95229.03;;;6.35;82.21
78835;BME280;68187;42.682;23.352;2023-03-23T05:29:56;95227.44;;;6.34;82.02
78835;BME280;68187;42.682;23.352;2023-03-23T05:32:23;95220.25;;;6.29;81.65
78835;BME280;68187;42.682;23.352;2023-03-23T05:34:54;95222.66;;;6.31;81.47
78835;BME280;68187;42.682;23.352;2023-03-23T05:37:23;95221.22;;;6.23;81.67
78835;BME280;68187;42.682;23.352;2023-03-23T05:39:50;95225.66;;;6.23;82.13
78835;BME280;68187;42.682;23.352;2023-03-23T05:42:19;95233.75;;;6.21;82.28
78835;BME280;68187;42.682;23.352;2023-03-23T05:44:45;95234.28;;;6.35;81.62
78835;BME280;68187;42.682;23.352;2023-03-23T05:47:12;95224.63;;;6.24;81.54
78835;BME280;68187;42.682;23.352;2023-03-23T05:49:39;95242.47;;;6.38;81.01
78835;BME280;68187;42.682;23.352;2023-03-23T05:52:06;95237.56;;;6.42;81.00
78835;BME280;68187;42.682;23.352;2023-03-23T05:54:34;95239.06;;;6.55;81.01
78835;BME280;68187;42.682;23.352;2023-03-23T05:57:01;95249.19;;;6.63;80.98
78835;BME280;68187;42.682;23.352;2023-03-23T05:59:28;95238.34;;;6.59;80.56
78835;BME280;68187;42.682;23.352;2023-03-23T06:01:54;95247.69;;;6.67;80.28
78835;BME280;68187;42.682;23.352;2023-03-23T06:04:22;95242.75;;;6.70;79.98
78835;BME280;68187;42.682;23.352;2023-03-23T06:06:50;95255.59;;;6.83;79.92
78835;BME280;68187;42.682;23.352;2023-03-23T06:09:18;95240.72;;;6.72;80.47
78835;BME280;68187;42.682;23.352;2023-03-23T06:11:46;95249.94;;;6.91;80.01
78835;BME280;68187;42.682;23.352;2023-03-23T06:14:13;95255.97;;;6.92;79.07
78835;BME280;68187;42.682;23.352;2023-03-23T06:16:41;95254.06;;;6.87;79.90
78835;BME280;68187;42.682;23.352;2023-03-23T06:19:08;95256.78;;;6.92;80.06
78835;BME280;68187;42.682;23.352;2023-03-23T06:21:36;95250.16;;;6.90;79.34
78835;BME280;68187;42.682;23.352;2023-03-23T06:24:04;95234.16;;;6.75;79.05
78835;BME280;68187;42.682;23.352;2023-03-23T06:26:33;95262.81;;;6.93;79.48
78835;BME280;68187;42.682;23.352;2023-03-23T06:29:02;95267.69;;;7.01;79.18
78835;BME280;68187;42.682;23.352;2023-03-23T06:31:29;95258.03;;;7.06;79.08
78835;BME280;68187;42.682;23.352;2023-03-23T06:33:56;95254.56;;;7.17;78.29
78835;BME280;68187;42.682;23.352;2023-03-23T06:36:23;95236.56;;;7.09;77.95
78835;BME280;68187;42.682;23.352;2023-03-23T06:38:52;95258.09;;;7.45;78.15
78835;BME280;68187;42.682;23.352;2023-03-23T06:41:18;95255.38;;;7.56;76.49
78835;BME280;68187;42.682;23.352;2023-03-23T06:43:45;95228.47;;;7.49;76.81
78835;BME280;68187;42.682;23.352;2023-03-23T06:46:13;95241.97;;;7.58;76.44
78835;BME280;68187;42.682;23.352;2023-03-23T06:48:40;95243.44;;;7.70;75.43
78835;BME280;68187;42.682;23.352;2023-03-23T06:51:07;95266.69;;;8.00;75.38
78835;BME280;68187;42.682;23.352;2023-03-23T06:53:34;95252.28;;;8.03;75.69
78835;BME280;68187;42.682;23.352;2023-03-23T06:56:01;95231.22;;;8.03;74.96
78835;BME280;68187;42.682;23.352;2023-03-23T06:58:28;95249.16;;;8.27;74.02
78835;BME280;68187;42.682;23.352;2023-03-23T07:00:55;95270.25;;;8.54;73.75
78835;BME280;68187;42.682;23.352;2023-03-23T07:03:25;95276.34;;;8.59;74.58
78835;BME280;68187;42.682;23.352;2023-03-23T07:05:53;95271.97;;;8.70;73.78
78835;BME280;68187;42.682;23.352;2023-03-23T07:08:20;95253.53;;;8.70;72.57
78835;BME280;68187;42.682;23.352;2023-03-23T07:10:46;95266.38;;;8.93;72.25
78835;BME280;68187;42.682;23.352;2023-03-23T07:13:15;95271.97;;;8.97;73.03
78835;BME280;68187;42.682;23.352;2023-03-23T07:15:42;95262.00;;;9.04;72.50
78835;BME280;68187;42.682;23.352;2023-03-23T07:18:09;95264.66;;;9.04;72.58
78835;BME280;68187;42.682;23.352;2023-03-23T07:20:37;95259.44;;;9.14;72.13
78835;BME280;68187;42.682;23.352;2023-03-23T07:23:04;95239.75;;;9.21;71.11
78835;BME280;68187;42.682;23.352;2023-03-23T07:25:31;95263.88;;;9.45;71.81
78835;BME280;68187;42.682;23.352;2023-03-23T07:27:58;95268.19;;;9.56;70.77
78835;BME280;68187;42.682;23.352;2023-03-23T07:30:25;95267.97;;;9.63;70.01
78835;BME280;68187;42.682;23.352;2023-03-23T07:32:54;95261.41;;;9.70;68.73
78835;BME280;68187;42.682;23.352;2023-03-23T07:35:21;95259.34;;;9.77;69.46
78835;BME280;68187;42.682;23.352;2023-03-23T07:37:49;95263.38;;;9.90;69.94
78835;BME280;68187;42.682;23.352;2023-03-23T07:40:17;95265.50;;;9.98;69.48
78835;BME280;68187;42.682;23.352;2023-03-23T07:42:45;95261.06;;;10.03;68.94
78835;BME280;68187;42.682;23.352;2023-03-23T07:45:15;95276.19;;;10.23;69.91
78835;BME280;68187;42.682;23.352;2023-03-23T07:47:41;95273.63;;;10.33;68.77
78835;BME280;68187;42.682;23.352;2023-03-23T07:50:08;95272.81;;;10.43;68.24
78835;BME280;68187;42.682;23.352;2023-03-23T07:52:36;95271.31;;;10.62;68.66
78835;BME280;68187;42.682;23.352;2023-03-23T07:55:06;95275.81;;;10.82;68.58
78835;BME280;68187;42.682;23.352;2023-03-23T07:57:33;95271.09;;;10.89;67.03
78835;BME280;68187;42.682;23.352;2023-03-23T08:00:00;95273.22;;;11.07;66.84
78835;BME280;68187;42.682;23.352;2023-03-23T08:02:40;95277.97;;;11.25;65.19
78835;BME280;68187;42.682;23.352;2023-03-23T08:05:07;95277.44;;;11.23;65.52
78835;BME280;68187;42.682;23.352;2023-03-23T08:07:35;95279.84;;;11.34;64.99
78835;BME280;68187;42.682;23.352;2023-03-23T08:10:02;95285.13;;;11.39;64.59
78835;BME280;68187;42.682;23.352;2023-03-23T08:12:31;95267.94;;;11.32;63.98
78835;BME280;68187;42.682;23.352;2023-03-23T08:14:57;95275.84;;;11.52;63.99
78835;BME280;68187;42.682;23.352;2023-03-23T08:17:24;95265.03;;;11.48;63.49
78835;BME280;68187;42.682;23.352;2023-03-23T08:19:51;95279.53;;;11.66;62.60
78835;BME280;68187;42.682;23.352;2023-03-23T08:22:18;95278.47;;;11.77;61.81
78835;BME280;68187;42.682;23.352;2023-03-23T08:24:44;95272.63;;;11.90;61.74
78835;BME280;68187;42.682;23.352;2023-03-23T08:27:11;95278.69;;;12.06;62.50
78835;BME280;68187;42.682;23.352;2023-03-23T08:29:39;95268.28;;;12.25;60.23
78835;BME280;68187;42.682;23.352;2023-03-23T08:32:06;95276.41;;;12.43;61.79
78835;BME280;68187;42.682;23.352;2023-03-23T08:34:33;95271.56;;;12.60;58.60
78835;BME280;68187;42.682;23.352;2023-03-23T08:37:00;95268.03;;;12.75;58.22
78835;BME280;68187;42.682;23.352;2023-03-23T08:39:26;95263.72;;;12.89;57.62
78835;BME280;68187;42.682;23.352;2023-03-23T08:41:55;95260.94;;;13.09;58.84
78835;BME280;68187;42.682;23.352;2023-03-23T08:44:22;95266.13;;;13.24;57.06
78835;BME280;68187;42.682;23.352;2023-03-23T08:46:50;95263.91;;;13.36;54.75
78835;BME280;68187;42.682;23.352;2023-03-23T08:49:19;95260.16;;;13.42;51.02
78835;BME280;68187;42.682;23.352;2023-03-23T08:51:47;95262.97;;;13.56;52.50
78835;BME280;68187;42.682;23.352;2023-03-23T08:54:14;95255.41;;;13.68;53.46
78835;BME280;68187;42.682;23.352;2023-03-23T08:56:41;95259.31;;;13.76;48.11
78835;BME280;68187;42.682;23.352;2023-03-23T08:59:07;95251.81;;;13.83;47.66
78835;BME280;68187;42.682;23.352;2023-03-23T09:01:35;95249.28;;;13.96;48.94
78835;BME280;68187;42.682;23.352;2023-03-23T09:04:03;95263.13;;;14.17;47.64
78835;BME280;68187;42.682;23.352;2023-03-23T09:06:30;95259.50;;;14.32;45.95
78835;BME280;68187;42.682;23.352;2023-03-23T09:08:58;95260.25;;;14.37;45.42
78835;BME280;68187;42.682;23.352;2023-03-23T09:11:26;95242.78;;;14.07;46.18
78835;BME280;68187;42.682;23.352;2023-03-23T09:13:52;95254.09;;;13.94;44.87
78835;BME280;68187;42.682;23.352;2023-03-23T09:16:19;95252.38;;;13.80;45.45
78835;BME280;68187;42.682;23.352;2023-03-23T09:18:46;95251.41;;;13.71;48.27
78835;BME280;68187;42.682;23.352;2023-03-23T09:21:14;95260.84;;;13.82;50.77
78835;BME280;68187;42.682;23.352;2023-03-23T09:23:40;95254.69;;;14.10;50.38
78835;BME280;68187;42.682;23.352;2023-03-23T09:26:09;95255.31;;;14.49;47.70
78835;BME280;68187;42.682;23.352;2023-03-23T09:28:36;95254.25;;;14.69;44.96
78835;BME280;68187;42.682;23.352;2023-03-23T09:31:03;95249.88;;;14.96;45.74
78835;BME280;68187;42.682;23.352;2023-03-23T09:33:30;95248.47;;;15.18;47.33
78835;BME280;68187;42.682;23.352;2023-03-23T09:35:59;95243.91;;;15.37;45.47
78835;BME280;68187;42.682;23.352;2023-03-23T09:38:27;95242.69;;;15.48;43.94
78835;BME280;68187;42.682;23.352;2023-03-23T09:41:03;95237.00;;;15.54;43.86
78835;BME280;68187;42.682;23.352;2023-03-23T09:43:49;95228.50;;;15.52;43.50
78835;BME280;68187;42.682;23.352;2023-03-23T09:49:10;95238.81;;;15.73;42.34
78835;BME280;68187;42.682;23.352;2023-03-23T09:51:44;95239.28;;;15.75;41.85
78835;BME280;68187;42.682;23.352;2023-03-23T09:54:20;95234.31;;;16.00;42.83
78835;BME280;68187;42.682;23.352;2023-03-23T09:56:49;95235.66;;;15.84;41.82
78835;BME280;68187;42.682;23.352;2023-03-23T09:59:20;95227.06;;;15.60;42.07
78835;BME280;68187;42.682;23.352;2023-03-23T10:01:51;95229.63;;;15.65;44.72
78835;BME280;68187;42.682;23.352;2023-03-23T10:04:28;95241.31;;;15.96;43.66
78835;BME280;68187;42.682;23.352;2023-03-23T10:06:58;95227.59;;;16.30;43.37
78835;BME280;68187;42.682;23.352;2023-03-23T10:09:28;95221.13;;;16.44;40.89
78835;BME280;68187;42.682;23.352;2023-03-23T10:12:02;95213.75;;;16.41;39.39
78835;BME280;68187;42.682;23.352;2023-03-23T10:14:39;95231.22;;;16.34;38.91
78835;BME280;68187;42.682;23.352;2023-03-23T10:17:14;95229.28;;;16.53;39.48
78835;BME280;68187;42.682;23.352;2023-03-23T10:19:47;95228.38;;;16.44;39.81
78835;BME280;68187;42.682;23.352;2023-03-23T10:22:18;95200.66;;;16.04;39.27
78835;BME280;68187;42.682;23.352;2023-03-23T10:24:51;95201.75;;;16.17;40.81
78835;BME280;68187;42.682;23.352;2023-03-23T10:27:26;95214.34;;;16.38;39.84
78835;BME280;68187;42.682;23.352;2023-03-23T10:29:57;95193.97;;;16.70;40.04
78835;BME280;68187;42.682;23.352;2023-03-23T10:32:40;95207.41;;;17.00;38.54
78835;BME280;68187;42.682;23.352;2023-03-23T10:35:12;95209.59;;;17.21;38.96
78835;BME280;68187;42.682;23.352;2023-03-23T10:37:44;95206.78;;;17.48;37.77
78835;BME280;68187;42.682;23.352;2023-03-23T10:40:15;95200.00;;;17.64;38.17
78835;BME280;68187;42.682;23.352;2023-03-23T10:42:43;95207.16;;;17.86;35.81
78835;BME280;68187;42.682;23.352;2023-03-23T10:45:16;95205.16;;;18.00;36.72
78835;BME280;68187;42.682;23.352;2023-03-23T10:47:47;95199.19;;;17.94;36.63
78835;BME280;68187;42.682;23.352;2023-03-23T10:50:21;95203.63;;;17.99;37.99
78835;BME280;68187;42.682;23.352;2023-03-23T10:52:50;95195.84;;;17.89;37.73
78835;BME280;68187;42.682;23.352;2023-03-23T10:55:21;95201.75;;;17.68;36.59
78835;BME280;68187;42.682;23.352;2023-03-23T10:57:59;95193.56;;;17.65;36.23
78835;BME280;68187;42.682;23.352;2023-03-23T11:00:28;95193.63;;;17.82;36.52
78835;BME280;68187;42.682;23.352;2023-03-23T11:03:01;95191.56;;;18.18;36.15
78835;BME280;68187;42.682;23.352;2023-03-23T11:05:35;95195.59;;;18.46;34.95
78835;BME280;68187;42.682;23.352;2023-03-23T11:08:03;95177.28;;;18.40;33.91
78835;BME280;68187;42.682;23.352;2023-03-23T11:10:36;95187.59;;;18.55;34.64
78835;BME280;68187;42.682;23.352;2023-03-23T11:13:04;95198.66;;;18.31;34.77
78835;BME280;68187;42.682;23.352;2023-03-23T11:15:37;95175.97;;;17.72;35.36
78835;BME280;68187;42.682;23.352;2023-03-23T11:18:09;95177.09;;;17.49;37.28
78835;BME280;68187;42.682;23.352;2023-03-23T11:20:39;95180.22;;;17.65;36.47
78835;BME280;68187;42.682;23.352;2023-03-23T11:23:19;95163.88;;;17.66;36.36
78835;BME280;68187;42.682;23.352;2023-03-23T11:25:57;95157.91;;;17.69;35.80
78835;BME280;68187;42.682;23.352;2023-03-23T11:28:30;95173.41;;;17.90;35.56
78835;BME280;68187;42.682;23.352;2023-03-23T11:30:59;95168.22;;;18.02;35.20
78835;BME280;68187;42.682;23.352;2023-03-23T11:33:29;95167.84;;;18.34;35.57
78835;BME280;68187;42.682;23.352;2023-03-23T11:35:57;95166.00;;;18.51;34.47
78835;BME280;68187;42.682;23.352;2023-03-23T11:38:25;95155.47;;;18.72;34.66
78835;BME280;68187;42.682;23.352;2023-03-23T11:40:54;95158.66;;;18.91;35.15
78835;BME280;68187;42.682;23.352;2023-03-23T11:43:23;95155.34;;;19.03;33.89
78835;BME280;68187;42.682;23.352;2023-03-23T11:45:56;95122.78;;;18.58;35.08
78835;BME280;68187;42.682;23.352;2023-03-23T11:48:33;95153.44;;;18.61;35.09
78835;BME280;68187;42.682;23.352;2023-03-23T11:51:05;95128.75;;;18.55;35.22
78835;BME280;68187;42.682;23.352;2023-03-23T11:53:45;95151.00;;;18.33;33.56
78835;BME280;68187;42.682;23.352;2023-03-23T11:56:23;95133.00;;;17.91;34.68
78835;BME280;68187;42.682;23.352;2023-03-23T11:58:51;95142.47;;;18.06;37.56
78835;BME280;68187;42.682;23.352;2023-03-23T12:01:43;95131.34;;;18.38;37.23
78835;BME280;68187;42.682;23.352;2023-03-23T12:04:32;95139.28;;;18.69;34.90
78835;BME280;68187;42.682;23.352;2023-03-23T12:07:11;95142.09;;;18.72;34.43
78835;BME280;68187;42.682;23.352;2023-03-23T12:09:47;95134.06;;;18.72;35.64
78835;BME280;68187;42.682;23.352;2023-03-23T12:12:23;95123.38;;;18.55;36.27
78835;BME280;68187;42.682;23.352;2023-03-23T12:14:59;95119.09;;;18.37;36.17
78835;BME280;68187;42.682;23.352;2023-03-23T12:17:36;95136.88;;;18.33;35.52
78835;BME280;68187;42.682;23.352;2023-03-23T12:20:19;95129.28;;;18.18;35.06
78835;BME280;68187;42.682;23.352;2023-03-23T12:22:55;95134.63;;;18.18;36.13
78835;BME280;68187;42.682;23.352;2023-03-23T12:28:49;95123.66;;;18.36;34.83
78835;BME280;68187;42.682;23.352;2023-03-23T12:31:24;95125.28;;;18.46;35.54
78835;BME280;68187;42.682;23.352;2023-03-23T12:34:03;95118.31;;;18.36;34.52
78835;BME280;68187;42.682;23.352;2023-03-23T12:36:42;95127.75;;;18.34;35.05
78835;BME280;68187;42.682;23.352;2023-03-23T12:39:34;95110.28;;;18.28;34.82
78835;BME280;68187;42.682;23.352;2023-03-23T12:42:10;95119.09;;;18.28;33.81
78835;BME280;68187;42.682;23.352;2023-03-23T12:44:46;95091.25;;;18.21;34.16
78835;BME280;68187;42.682;23.352;2023-03-23T12:47:24;95093.28;;;18.24;33.83
78835;BME280;68187;42.682;23.352;2023-03-23T12:49:57;95109.16;;;18.29;33.95
78835;BME280;68187;42.682;23.352;2023-03-23T12:52:26;95109.78;;;18.17;33.99
78835;BME280;68187;42.682;23.352;2023-03-23T12:54:59;95097.66;;;18.03;34.43
78835;BME280;68187;42.682;23.352;2023-03-23T12:57:31;95101.41;;;18.02;36.13
78835;BME280;68187;42.682;23.352;2023-03-23T13:00:06;95081.16;;;18.01;35.45
78835;BME280;68187;42.682;23.352;2023-03-23T13:02:40;95094.50;;;18.01;36.16
78835;BME280;68187;42.682;23.352;2023-03-23T13:05:10;95091.97;;;17.87;34.99
78835;BME280;68187;42.682;23.352;2023-03-23T13:07:43;95100.78;;;17.88;36.56
78835;BME280;68187;42.682;23.352;2023-03-23T13:10:18;95099.19;;;17.95;36.51
78835;BME280;68187;42.682;23.352;2023-03-23T13:12:47;95094.97;;;17.94;35.82
78835;BME280;68187;42.682;23.352;2023-03-23T13:15:23;95095.38;;;17.79;36.41
78835;BME280;68187;42.682;23.352;2023-03-23T13:17:58;95076.06;;;17.73;37.35
78835;BME280;68187;42.682;23.352;2023-03-23T13:20:46;95089.44;;;17.91;35.43